sensor_id;sensor_type;location;lat;lon;timestamp;pressure;altitude;pressure_sealevel;temperature;humidity
32875;BME280;40468;42.128;24.750;2023-08-17T00:00:29;99631.25;;;24.68;45.94
32875;BME280;40468;42.128;24.750;2023-08-17T00:02:01;99634.91;;;24.67;46.15
32875;BME280;40468;42.128;24.750;2023-08-17T00:03:31;99634.09;;;24.67;46.11
32875;BME280;40468;42.128;24.750;2023-08-17T00:05:03;99623.75;;;24.64;45.86
32875;BME280;40468;42.128;24.750;2023-08-17T00:06:35;99630.91;;;24.63;46.24
32875;BME280;40468;42.128;24.750;2023-08-17T00:08:07;99632.91;;;24.61;46.41
32875;BME280;40468;42.128;24.750;2023-08-17T00:09:38;99634.06;;;24.59;46.01
32875;BME280;40468;42.128;24.750;2023-08-17T00:11:10;99633.38;;;24.57;46.00
32875;BME280;40468;42.128;24.750;2023-08-17T00:12:40;99630.03;;;24.55;46.34
32875;BME280;40468;42.128;24.750;2023-08-17T00:14:12;99627.56;;;24.53;46.31
32875;BME280;40468;42.128;24.750;2023-08-17T00:15:42;99631.38;;;24.50;46.52
32875;BME280;40468;42.128;24.750;2023-08-17T00:17:15;99629.88;;;24.48;46.26
32875;BME280;40468;42.128;24.750;2023-08-17T00:18:47;99633.53;;;24.47;46.20
32875;BME280;40468;42.128;24.750;2023-08-17T00:20:18;99632.72;;;24.46;46.33
32875;BME280;40468;42.128;24.750;2023-08-17T00:21:50;99632.88;;;24.45;46.73
32875;BME280;40468;42.128;24.750;2023-08-17T00:23:22;99634.84;;;24.43;46.86
32875;BME280;40468;42.128;24.750;2023-08-17T00:24:53;99634.31;;;24.39;46.86
32875;BME280;40468;42.128;24.750;2023-08-17T00:26:24;99630.13;;;24.37;46.94
32875;BME280;40468;42.128;24.750;2023-08-17T00:27:56;99633.94;;;24.34;46.88
32875;BME280;40468;42.128;24.750;2023-08-17T00:29:26;99632.47;;;24.32;47.00
32875;BME280;40468;42.128;24.750;2023-08-17T00:30:59;99632.47;;;24.32;46.99
32875;BME280;40468;42.128;24.750;2023-08-17T00:32:30;99629.81;;;24.32;46.96
32875;BME280;40468;42.128;24.750;2023-08-17T00:34:01;99630.97;;;24.29;47.04
32875;BME280;40468;42.128;24.750;2023-08-17T00:35:33;99630.28;;;24.27;47.11
32875;BME280;40468;42.128;24.750;2023-08-17T00:37:05;99620.78;;;24.24;46.90
32875;BME280;40468;42.128;24.750;2023-08-17T00:38:36;99620.97;;;24.23;46.86
32875;BME280;40468;42.128;24.750;2023-08-17T00:40:07;99623.78;;;24.21;46.90
32875;BME280;40468;42.128;24.750;2023-08-17T00:41:39;99618.78;;;24.18;47.13
32875;BME280;40468;42.128;24.750;2023-08-17T00:43:09;99621.44;;;24.18;47.29
32875;BME280;40468;42.128;24.750;2023-08-17T00:44:41;99619.78;;;24.17;47.11
32875;BME280;40468;42.128;24.750;2023-08-17T00:46:11;99623.41;;;24.16;47.19
32875;BME280;40468;42.128;24.750;2023-08-17T00:47:44;99625.44;;;24.14;47.25
32875;BME280;40468;42.128;24.750;2023-08-17T00:49:15;99630.75;;;24.14;47.15
32875;BME280;40468;42.128;24.750;2023-08-17T00:50:47;99631.06;;;24.11;47.26
32875;BME280;40468;42.128;24.750;2023-08-17T00:52:19;99623.41;;;24.08;47.56
32875;BME280;40468;42.128;24.750;2023-08-17T00:53:51;99632.88;;;24.02;47.38
32875;BME280;40468;42.128;24.750;2023-08-17T00:55:22;99635.66;;;24.01;47.74
32875;BME280;40468;42.128;24.750;2023-08-17T00:56:54;99631.69;;;23.97;47.82
32875;BME280;40468;42.128;24.750;2023-08-17T00:58:26;99636.50;;;23.93;47.82
32875;BME280;40468;42.128;24.750;2023-08-17T00:59:58;99637.94;;;23.88;48.00
32875;BME280;40468;42.128;24.750;2023-08-17T01:01:29;99636.44;;;23.85;48.10
32875;BME280;40468;42.128;24.750;2023-08-17T01:03:00;99637.59;;;23.82;47.99
32875;BME280;40468;42.128;24.750;2023-08-17T01:04:31;99635.94;;;23.81;48.16
32875;BME280;40468;42.128;24.750;2023-08-17T01:06:02;99632.59;;;23.79;48.07
32875;BME280;40468;42.128;24.750;2023-08-17T01:07:35;99639.06;;;23.77;47.98
32875;BME280;40468;42.128;24.750;2023-08-17T01:09:07;99636.03;;;23.72;48.21
32875;BME280;40468;42.128;24.750;2023-08-17T01:10:41;99645.00;;;23.71;47.95
32875;BME280;40468;42.128;24.750;2023-08-17T01:12:17;99642.44;;;23.69;47.85
32875;BME280;40468;42.128;24.750;2023-08-17T01:13:52;99643.34;;;23.70;48.10
32875;BME280;40468;42.128;24.750;2023-08-17T01:15:24;99639.53;;;23.72;47.89
32875;BME280;40468;42.128;24.750;2023-08-17T01:17:00;99633.22;;;23.73;47.99
32875;BME280;40468;42.128;24.750;2023-08-17T01:18:34;99627.72;;;23.75;47.93
32875;BME280;40468;42.128;24.750;2023-08-17T01:20:07;99629.56;;;23.74;47.88
32875;BME280;40468;42.128;24.750;2023-08-17T01:21:41;99621.59;;;23.74;47.87
32875;BME280;40468;42.128;24.750;2023-08-17T01:23:14;99628.72;;;23.74;48.09
32875;BME280;40468;42.128;24.750;2023-08-17T01:24:45;99628.22;;;23.70;48.14
32875;BME280;40468;42.128;24.750;2023-08-17T01:26:16;99630.88;;;23.70;48.15
32875;BME280;40468;42.128;24.750;2023-08-17T01:27:47;99618.69;;;23.68;48.00
32875;BME280;40468;42.128;24.750;2023-08-17T01:29:18;99626.00;;;23.66;48.06
32875;BME280;40468;42.128;24.750;2023-08-17T01:30:49;99623.50;;;23.64;48.19
32875;BME280;40468;42.128;24.750;2023-08-17T01:32:26;99628.97;;;23.62;48.35
32875;BME280;40468;42.128;24.750;2023-08-17T01:34:01;99637.13;;;23.61;48.14
32875;BME280;40468;42.128;24.750;2023-08-17T01:35:37;99626.63;;;23.59;48.32
32875;BME280;40468;42.128;24.750;2023-08-17T01:37:09;99627.44;;;23.60;48.14
32875;BME280;40468;42.128;24.750;2023-08-17T01:38:43;99635.59;;;23.58;48.22
32875;BME280;40468;42.128;24.750;2023-08-17T01:40:15;99637.44;;;23.58;48.15
32875;BME280;40468;42.128;24.750;2023-08-17T01:41:47;99628.63;;;23.57;48.35
32875;BME280;40468;42.128;24.750;2023-08-17T01:43:17;99629.59;;;23.56;48.23
32875;BME280;40468;42.128;24.750;2023-08-17T01:44:49;99627.94;;;23.55;48.31
32875;BME280;40468;42.128;24.750;2023-08-17T01:46:20;99632.25;;;23.56;48.41
32875;BME280;40468;42.128;24.750;2023-08-17T01:47:52;99630.59;;;23.55;48.53
32875;BME280;40468;42.128;24.750;2023-08-17T01:49:22;99630.91;;;23.52;48.35
32875;BME280;40468;42.128;24.750;2023-08-17T01:50:54;99628.72;;;23.48;48.49
32875;BME280;40468;42.128;24.750;2023-08-17T01:52:25;99628.66;;;23.39;48.85
32875;BME280;40468;42.128;24.750;2023-08-17T01:53:59;99629.59;;;23.30;48.95
32875;BME280;40468;42.128;24.750;2023-08-17T01:55:29;99626.72;;;23.24;49.39
32875;BME280;40468;42.128;24.750;2023-08-17T01:57:01;99632.66;;;23.17;49.33
32875;BME280;40468;42.128;24.750;2023-08-17T01:58:32;99629.47;;;23.14;49.25
32875;BME280;40468;42.128;24.750;2023-08-17T02:00:04;99631.63;;;23.10;49.52
32875;BME280;40468;42.128;24.750;2023-08-17T02:01:35;99631.22;;;23.05;49.60
32875;BME280;40468;42.128;24.750;2023-08-17T02:03:06;99629.19;;;22.99;49.75
32875;BME280;40468;42.128;24.750;2023-08-17T02:04:37;99622.94;;;22.90;50.07
32875;BME280;40468;42.128;24.750;2023-08-17T02:06:09;99621.56;;;22.86;50.13
32875;BME280;40468;42.128;24.750;2023-08-17T02:07:39;99627.88;;;22.85;50.33
32875;BME280;40468;42.128;24.750;2023-08-17T02:09:12;99622.88;;;22.82;50.17
32875;BME280;40468;42.128;24.750;2023-08-17T02:10:43;99626.66;;;22.80;50.52
32875;BME280;40468;42.128;24.750;2023-08-17T02:12:14;99623.34;;;22.78;50.58
32875;BME280;40468;42.128;24.750;2023-08-17T02:13:45;99618.59;;;22.71;50.74
32875;BME280;40468;42.128;24.750;2023-08-17T02:15:16;99625.38;;;22.66;50.97
32875;BME280;40468;42.128;24.750;2023-08-17T02:16:47;99624.69;;;22.64;51.02
32875;BME280;40468;42.128;24.750;2023-08-17T02:18:19;99622.19;;;22.62;50.96
32875;BME280;40468;42.128;24.750;2023-08-17T02:19:49;99619.69;;;22.61;51.09
32875;BME280;40468;42.128;24.750;2023-08-17T02:21:21;99626.66;;;22.62;51.13
32875;BME280;40468;42.128;24.750;2023-08-17T02:22:52;99624.16;;;22.60;51.11
32875;BME280;40468;42.128;24.750;2023-08-17T02:24:25;99613.84;;;22.57;51.13
32875;BME280;40468;42.128;24.750;2023-08-17T02:25:57;99616.63;;;22.56;51.04
32875;BME280;40468;42.128;24.750;2023-08-17T02:27:27;99621.94;;;22.56;51.30
32875;BME280;40468;42.128;24.750;2023-08-17T02:29:01;99620.28;;;22.55;51.15
32875;BME280;40468;42.128;24.750;2023-08-17T02:30:31;99613.16;;;22.55;51.34
32875;BME280;40468;42.128;24.750;2023-08-17T02:32:03;99620.94;;;22.57;51.21
32875;BME280;40468;42.128;24.750;2023-08-17T02:33:34;99618.31;;;22.57;51.20
32875;BME280;40468;42.128;24.750;2023-08-17T02:35:07;99620.28;;;22.55;51.34
32875;BME280;40468;42.128;24.750;2023-08-17T02:36:38;99617.25;;;22.49;51.65
32875;BME280;40468;42.128;24.750;2023-08-17T02:38:09;99612.25;;;22.46;51.85
32875;BME280;40468;42.128;24.750;2023-08-17T02:39:41;99618.53;;;22.45;51.78
32875;BME280;40468;42.128;24.750;2023-08-17T02:41:13;99615.19;;;22.43;51.73
32875;BME280;40468;42.128;24.750;2023-08-17T02:42:45;99616.19;;;22.42;51.86
32875;BME280;40468;42.128;24.750;2023-08-17T02:44:15;99616.31;;;22.41;52.03
32875;BME280;40468;42.128;24.750;2023-08-17T02:45:47;99612.63;;;22.34;52.64
32875;BME280;40468;42.128;24.750;2023-08-17T02:47:17;99618.66;;;22.26;52.71
32875;BME280;40468;42.128;24.750;2023-08-17T02:48:49;99619.13;;;22.21;52.89
32875;BME280;40468;42.128;24.750;2023-08-17T02:50:20;99620.63;;;22.14;53.17
32875;BME280;40468;42.128;24.750;2023-08-17T02:51:52;99619.28;;;22.10;53.29
32875;BME280;40468;42.128;24.750;2023-08-17T02:53:23;99620.69;;;22.04;53.72
32875;BME280;40468;42.128;24.750;2023-08-17T02:54:56;99621.00;;;22.01;53.49
32875;BME280;40468;42.128;24.750;2023-08-17T02:56:27;99618.47;;;22.00;53.67
32875;BME280;40468;42.128;24.750;2023-08-17T02:57:58;99621.28;;;21.98;53.45
32875;BME280;40468;42.128;24.750;2023-08-17T02:59:29;99616.81;;;21.99;53.70
32875;BME280;40468;42.128;24.750;2023-08-17T03:01:02;99617.63;;;21.99;53.33
32875;BME280;40468;42.128;24.750;2023-08-17T03:02:34;99615.81;;;22.00;53.54
32875;BME280;40468;42.128;24.750;2023-08-17T03:04:04;99618.75;;;21.97;53.57
32875;BME280;40468;42.128;24.750;2023-08-17T03:05:36;99618.75;;;21.97;53.57
32875;BME280;40468;42.128;24.750;2023-08-17T03:07:07;99622.41;;;21.96;53.46
32875;BME280;40468;42.128;24.750;2023-08-17T03:08:38;99612.09;;;21.93;53.50
32875;BME280;40468;42.128;24.750;2023-08-17T03:10:11;99615.88;;;21.90;53.53
32875;BME280;40468;42.128;24.750;2023-08-17T03:11:42;99614.22;;;21.89;53.46
32875;BME280;40468;42.128;24.750;2023-08-17T03:13:14;99621.31;;;21.89;53.24
32875;BME280;40468;42.128;24.750;2023-08-17T03:14:45;99619.81;;;21.86;53.36
32875;BME280;40468;42.128;24.750;2023-08-17T03:16:16;99617.16;;;21.86;53.32
32875;BME280;40468;42.128;24.750;2023-08-17T03:17:48;99618.94;;;21.86;53.31
32875;BME280;40468;42.128;24.750;2023-08-17T03:19:18;99615.34;;;21.87;53.26
32875;BME280;40468;42.128;24.750;2023-08-17T03:20:50;99617.81;;;21.88;53.14
32875;BME280;40468;42.128;24.750;2023-08-17T03:22:21;99614.22;;;21.89;52.71
32875;BME280;40468;42.128;24.750;2023-08-17T03:23:52;99622.00;;;21.91;52.68
32875;BME280;40468;42.128;24.750;2023-08-17T03:25:24;99628.84;;;21.93;52.70
32875;BME280;40468;42.128;24.750;2023-08-17T03:26:56;99623.41;;;21.95;52.52
32875;BME280;40468;42.128;24.750;2023-08-17T03:28:26;99619.75;;;21.96;52.62
32875;BME280;40468;42.128;24.750;2023-08-17T03:29:58;99626.72;;;21.97;52.59
32875;BME280;40468;42.128;24.750;2023-08-17T03:31:29;99624.91;;;21.97;52.36
32875;BME280;40468;42.128;24.750;2023-08-17T03:33:00;99624.91;;;21.97;52.52
32875;BME280;40468;42.128;24.750;2023-08-17T03:34:31;99626.06;;;21.95;52.45
32875;BME280;40468;42.128;24.750;2023-08-17T03:36:03;99626.19;;;21.93;52.49
32875;BME280;40468;42.128;24.750;2023-08-17T03:37:34;99622.84;;;21.91;52.49
32875;BME280;40468;42.128;24.750;2023-08-17T03:39:05;99629.66;;;21.94;52.35
32875;BME280;40468;42.128;24.750;2023-08-17T03:40:37;99632.19;;;21.95;52.13
32875;BME280;40468;42.128;24.750;2023-08-17T03:42:09;99627.56;;;21.97;52.14
32875;BME280;40468;42.128;24.750;2023-08-17T03:43:39;99630.78;;;22.01;52.19
32875;BME280;40468;42.128;24.750;2023-08-17T03:45:11;99635.78;;;22.04;51.82
32875;BME280;40468;42.128;24.750;2023-08-17T03:46:42;99630.47;;;22.04;51.99
32875;BME280;40468;42.128;24.750;2023-08-17T03:48:13;99640.78;;;22.07;51.90
32875;BME280;40468;42.128;24.750;2023-08-17T03:49:44;99636.16;;;22.09;51.75
32875;BME280;40468;42.128;24.750;2023-08-17T03:51:16;99639.66;;;22.10;51.58
32875;BME280;40468;42.128;24.750;2023-08-17T03:52:47;99637.00;;;22.10;51.49
32875;BME280;40468;42.128;24.750;2023-08-17T03:54:19;99642.59;;;22.07;51.98
32875;BME280;40468;42.128;24.750;2023-08-17T03:55:51;99638.72;;;22.01;51.95
32875;BME280;40468;42.128;24.750;2023-08-17T03:57:22;99636.66;;;21.95;52.34
32875;BME280;40468;42.128;24.750;2023-08-17T03:58:53;99641.69;;;21.88;52.58
32875;BME280;40468;42.128;24.750;2023-08-17T04:00:25;99636.97;;;21.82;52.72
32875;BME280;40468;42.128;24.750;2023-08-17T04:01:55;99639.91;;;21.79;52.87
32875;BME280;40468;42.128;24.750;2023-08-17T04:03:27;99646.91;;;21.80;52.81
32875;BME280;40468;42.128;24.750;2023-08-17T04:04:58;99641.59;;;21.80;52.69
32875;BME280;40468;42.128;24.750;2023-08-17T04:06:29;99636.59;;;21.77;52.89
32875;BME280;40468;42.128;24.750;2023-08-17T04:08:00;99636.84;;;21.74;52.95
32875;BME280;40468;42.128;24.750;2023-08-17T04:09:32;99641.19;;;21.75;52.88
32875;BME280;40468;42.128;24.750;2023-08-17T04:11:05;99641.88;;;21.77;52.87
32875;BME280;40468;42.128;24.750;2023-08-17T04:12:37;99646.03;;;21.79;52.68
32875;BME280;40468;42.128;24.750;2023-08-17T04:14:07;99643.97;;;21.83;52.78
32875;BME280;40468;42.128;24.750;2023-08-17T04:15:40;99645.63;;;21.84;52.88
32875;BME280;40468;42.128;24.750;2023-08-17T04:17:11;99642.81;;;21.86;52.65
32875;BME280;40468;42.128;24.750;2023-08-17T04:18:42;99644.34;;;21.88;52.54
32875;BME280;40468;42.128;24.750;2023-08-17T04:20:13;99653.81;;;21.91;52.84
32875;BME280;40468;42.128;24.750;2023-08-17T04:21:45;99645.75;;;21.92;52.69
32875;BME280;40468;42.128;24.750;2023-08-17T04:23:15;99633.16;;;21.94;52.45
32875;BME280;40468;42.128;24.750;2023-08-17T04:24:47;99638.44;;;21.94;52.60
32875;BME280;40468;42.128;24.750;2023-08-17T04:26:19;99647.09;;;21.96;52.31
32875;BME280;40468;42.128;24.750;2023-08-17T04:27:51;99642.34;;;22.00;52.23
32875;BME280;40468;42.128;24.750;2023-08-17T04:29:21;99645.81;;;22.00;52.17
32875;BME280;40468;42.128;24.750;2023-08-17T04:30:53;99647.50;;;22.01;51.93
32875;BME280;40468;42.128;24.750;2023-08-17T04:32:23;99641.38;;;22.01;52.19
32875;BME280;40468;42.128;24.750;2023-08-17T04:33:55;99643.16;;;22.00;52.00
32875;BME280;40468;42.128;24.750;2023-08-17T04:35:27;99644.84;;;22.01;51.91
32875;BME280;40468;42.128;24.750;2023-08-17T04:36:57;99636.91;;;22.01;52.01
32875;BME280;40468;42.128;24.750;2023-08-17T04:38:29;99637.72;;;22.02;52.08
32875;BME280;40468;42.128;24.750;2023-08-17T04:40:00;99641.91;;;22.04;51.67
32875;BME280;40468;42.128;24.750;2023-08-17T04:41:32;99648.88;;;22.06;52.08
32875;BME280;40468;42.128;24.750;2023-08-17T04:43:04;99644.25;;;22.08;51.73
32875;BME280;40468;42.128;24.750;2023-08-17T04:44:34;99642.59;;;22.07;51.90
32875;BME280;40468;42.128;24.750;2023-08-17T04:46:06;99644.25;;;22.08;51.67
32875;BME280;40468;42.128;24.750;2023-08-17T04:47:37;99655.69;;;22.08;51.97
32875;BME280;40468;42.128;24.750;2023-08-17T04:49:08;99648.75;;;22.07;51.85
32875;BME280;40468;42.128;24.750;2023-08-17T04:50:39;99648.44;;;22.10;51.74
32875;BME280;40468;42.128;24.750;2023-08-17T04:52:11;99650.81;;;22.13;51.65
32875;BME280;40468;42.128;24.750;2023-08-17T04:53:42;99645.22;;;22.16;51.72
32875;BME280;40468;42.128;24.750;2023-08-17T04:55:13;99649.53;;;22.17;52.04
32875;BME280;40468;42.128;24.750;2023-08-17T04:56:46;99652.06;;;22.19;51.83
32875;BME280;40468;42.128;24.750;2023-08-17T04:58:16;99650.25;;;22.19;51.83
32875;BME280;40468;42.128;24.750;2023-08-17T04:59:48;99651.38;;;22.17;52.34
32875;BME280;40468;42.128;24.750;2023-08-17T05:01:18;99658.75;;;22.13;52.45
32875;BME280;40468;42.128;24.750;2023-08-17T05:02:50;99650.09;;;22.11;52.55
32875;BME280;40468;42.128;24.750;2023-08-17T05:04:22;99657.38;;;22.09;52.64
32875;BME280;40468;42.128;24.750;2023-08-17T05:05:52;99656.53;;;22.09;52.80
32875;BME280;40468;42.128;24.750;2023-08-17T05:07:24;99658.06;;;22.11;52.86
32875;BME280;40468;42.128;24.750;2023-08-17T05:08:55;99647.31;;;22.13;52.63
32875;BME280;40468;42.128;24.750;2023-08-17T05:10:26;99657.50;;;22.17;52.56
32875;BME280;40468;42.128;24.750;2023-08-17T05:11:58;99652.72;;;22.21;52.74
32875;BME280;40468;42.128;24.750;2023-08-17T05:13:30;99649.78;;;22.24;52.71
32875;BME280;40468;42.128;24.750;2023-08-17T05:15:01;99654.97;;;22.25;52.75
32875;BME280;40468;42.128;24.750;2023-08-17T05:16:32;99656.78;;;22.25;52.80
32875;BME280;40468;42.128;24.750;2023-08-17T05:18:03;99648.66;;;22.26;52.70
32875;BME280;40468;42.128;24.750;2023-08-17T05:19:35;99651.19;;;22.28;53.02
32875;BME280;40468;42.128;24.750;2023-08-17T05:21:08;99650.72;;;22.33;52.80
32875;BME280;40468;42.128;24.750;2023-08-17T05:22:38;99652.78;;;22.39;52.97
32875;BME280;40468;42.128;24.750;2023-08-17T05:24:10;99653.88;;;22.46;52.76
32875;BME280;40468;42.128;24.750;2023-08-17T05:25:41;99654.78;;;22.55;52.70
32875;BME280;40468;42.128;24.750;2023-08-17T05:27:13;99653.72;;;22.65;52.42
32875;BME280;40468;42.128;24.750;2023-08-17T05:28:44;99653.69;;;22.75;52.25
32875;BME280;40468;42.128;24.750;2023-08-17T05:30:16;99652.75;;;22.84;52.05
32875;BME280;40468;42.128;24.750;2023-08-17T05:31:46;99652.84;;;22.92;51.91
32875;BME280;40468;42.128;24.750;2023-08-17T05:33:18;99644.66;;;23.04;52.01
32875;BME280;40468;42.128;24.750;2023-08-17T05:34:49;99655.03;;;23.15;52.08
32875;BME280;40468;42.128;24.750;2023-08-17T05:36:20;99654.81;;;23.26;51.81
32875;BME280;40468;42.128;24.750;2023-08-17T05:37:51;99649.63;;;23.43;51.59
32875;BME280;40468;42.128;24.750;2023-08-17T05:39:22;99644.91;;;23.62;51.80
32875;BME280;40468;42.128;24.750;2023-08-17T05:40:56;99646.91;;;23.87;51.71
32875;BME280;40468;42.128;24.750;2023-08-17T05:42:30;99649.91;;;24.26;50.71
32875;BME280;40468;42.128;24.750;2023-08-17T05:44:01;99648.06;;;24.93;49.45
32875;BME280;40468;42.128;24.750;2023-08-17T05:45:32;99644.03;;;25.87;47.67
32875;BME280;40468;42.128;24.750;2023-08-17T05:47:07;99650.78;;;27.00;45.73
32875;BME280;40468;42.128;24.750;2023-08-17T05:48:37;99650.31;;;27.72;43.56
32875;BME280;40468;42.128;24.750;2023-08-17T05:50:09;99643.03;;;28.25;42.36
32875;BME280;40468;42.128;24.750;2023-08-17T05:51:40;99644.63;;;28.56;41.07
32875;BME280;40468;42.128;24.750;2023-08-17T05:53:11;99645.53;;;28.85;40.85
32875;BME280;40468;42.128;24.750;2023-08-17T05:54:42;99644.53;;;29.07;40.54
32875;BME280;40468;42.128;24.750;2023-08-17T05:56:14;99646.97;;;29.02;40.30
32875;BME280;40468;42.128;24.750;2023-08-17T05:57:46;99643.47;;;28.65;40.88
32875;BME280;40468;42.128;24.750;2023-08-17T05:59:17;99639.69;;;28.23;41.67
32875;BME280;40468;42.128;24.750;2023-08-17T06:00:48;99639.53;;;27.80;42.50
32875;BME280;40468;42.128;24.750;2023-08-17T06:02:19;99640.81;;;27.55;43.23
32875;BME280;40468;42.128;24.750;2023-08-17T06:03:50;99638.84;;;27.34;43.40
32875;BME280;40468;42.128;24.750;2023-08-17T06:05:22;99640.84;;;27.09;43.76
32875;BME280;40468;42.128;24.750;2023-08-17T06:06:55;99643.06;;;26.82;44.72
32875;BME280;40468;42.128;24.750;2023-08-17T06:08:27;99633.03;;;26.61;45.31
32875;BME280;40468;42.128;24.750;2023-08-17T06:09:57;99639.06;;;26.47;45.56
32875;BME280;40468;42.128;24.750;2023-08-17T06:11:29;99636.84;;;26.36;46.13
32875;BME280;40468;42.128;24.750;2023-08-17T06:13:02;99632.16;;;26.29;46.44
32875;BME280;40468;42.128;24.750;2023-08-17T06:14:33;99638.34;;;26.30;46.11
32875;BME280;40468;42.128;24.750;2023-08-17T06:16:05;99640.53;;;26.26;46.62
32875;BME280;40468;42.128;24.750;2023-08-17T06:17:36;99636.75;;;26.21;46.58
32875;BME280;40468;42.128;24.750;2023-08-17T06:19:07;99636.22;;;26.17;46.70
32875;BME280;40468;42.128;24.750;2023-08-17T06:20:38;99630.38;;;26.22;46.41
32875;BME280;40468;42.128;24.750;2023-08-17T06:22:09;99632.69;;;26.25;46.91
32875;BME280;40468;42.128;24.750;2023-08-17T06:23:40;99628.31;;;26.32;46.42
32875;BME280;40468;42.128;24.750;2023-08-17T06:25:11;99642.44;;;26.41;46.49
32875;BME280;40468;42.128;24.750;2023-08-17T06:26:42;99631.59;;;26.50;46.40
32875;BME280;40468;42.128;24.750;2023-08-17T06:28:15;99629.72;;;26.59;46.64
32875;BME280;40468;42.128;24.750;2023-08-17T06:29:46;99635.53;;;26.63;46.28
32875;BME280;40468;42.128;24.750;2023-08-17T06:31:18;99631.84;;;26.64;46.48
32875;BME280;40468;42.128;24.750;2023-08-17T06:32:50;99642.84;;;26.69;46.25
32875;BME280;40468;42.128;24.750;2023-08-17T06:34:21;99632.44;;;26.74;46.15
32875;BME280;40468;42.128;24.750;2023-08-17T06:35:52;99636.06;;;26.81;46.43
32875;BME280;40468;42.128;24.750;2023-08-17T06:37:24;99638.31;;;26.92;46.09
32875;BME280;40468;42.128;24.750;2023-08-17T06:38:54;99639.72;;;27.03;46.20
32875;BME280;40468;42.128;24.750;2023-08-17T06:40:26;99637.66;;;27.13;45.77
32875;BME280;40468;42.128;24.750;2023-08-17T06:41:56;99636.97;;;27.19;45.38
32875;BME280;40468;42.128;24.750;2023-08-17T06:43:29;99636.13;;;27.19;45.51
32875;BME280;40468;42.128;24.750;2023-08-17T06:45:00;99635.94;;;27.20;45.38
32875;BME280;40468;42.128;24.750;2023-08-17T06:46:31;99641.13;;;27.22;45.51
32875;BME280;40468;42.128;24.750;2023-08-17T06:48:03;99634.94;;;27.21;45.09
32875;BME280;40468;42.128;24.750;2023-08-17T06:49:34;99632.06;;;27.23;45.03
32875;BME280;40468;42.128;24.750;2023-08-17T06:51:05;99641.22;;;27.29;45.29
32875;BME280;40468;42.128;24.750;2023-08-17T06:52:37;99637.81;;;27.35;45.06
32875;BME280;40468;42.128;24.750;2023-08-17T06:54:09;99634.03;;;27.44;45.10
32875;BME280;40468;42.128;24.750;2023-08-17T06:55:41;99638.03;;;27.48;44.50
32875;BME280;40468;42.128;24.750;2023-08-17T06:57:11;99637.47;;;27.53;44.33
32875;BME280;40468;42.128;24.750;2023-08-17T06:58:44;99632.88;;;27.61;44.64
32875;BME280;40468;42.128;24.750;2023-08-17T07:00:16;99631.38;;;27.74;44.63
32875;BME280;40468;42.128;24.750;2023-08-17T07:01:50;99630.13;;;27.84;44.07
32875;BME280;40468;42.128;24.750;2023-08-17T07:03:22;99639.81;;;28.00;43.90
32875;BME280;40468;42.128;24.750;2023-08-17T07:04:52;99636.28;;;28.15;43.97
32875;BME280;40468;42.128;24.750;2023-08-17T07:06:24;99627.56;;;28.27;43.62
32875;BME280;40468;42.128;24.750;2023-08-17T07:07:55;99626.91;;;28.40;43.45
32875;BME280;40468;42.128;24.750;2023-08-17T07:09:27;99631.78;;;28.51;43.38
32875;BME280;40468;42.128;24.750;2023-08-17T07:10:59;99632.75;;;28.65;43.20
32875;BME280;40468;42.128;24.750;2023-08-17T07:12:31;99627.94;;;28.75;42.91
32875;BME280;40468;42.128;24.750;2023-08-17T07:14:04;99626.41;;;28.88;42.93
32875;BME280;40468;42.128;24.750;2023-08-17T07:15:36;99633.72;;;29.00;42.69
32875;BME280;40468;42.128;24.750;2023-08-17T07:17:07;99634.88;;;29.13;42.31
32875;BME280;40468;42.128;24.750;2023-08-17T07:18:38;99630.84;;;29.23;41.83
32875;BME280;40468;42.128;24.750;2023-08-17T07:20:09;99631.16;;;29.35;41.82
32875;BME280;40468;42.128;24.750;2023-08-17T07:21:41;99635.13;;;29.46;41.74
32875;BME280;40468;42.128;24.750;2023-08-17T07:23:13;99633.59;;;29.58;41.70
32875;BME280;40468;42.128;24.750;2023-08-17T07:24:43;99635.94;;;29.68;41.63
32875;BME280;40468;42.128;24.750;2023-08-17T07:26:15;99628.75;;;29.75;41.08
32875;BME280;40468;42.128;24.750;2023-08-17T07:27:46;99630.81;;;29.73;40.95
32875;BME280;40468;42.128;24.750;2023-08-17T07:29:19;99630.59;;;29.75;40.78
32875;BME280;40468;42.128;24.750;2023-08-17T07:30:49;99623.44;;;29.82;40.61
32875;BME280;40468;42.128;24.750;2023-08-17T07:32:21;99625.53;;;29.93;40.74
32875;BME280;40468;42.128;24.750;2023-08-17T07:33:52;99631.78;;;30.00;40.65
32875;BME280;40468;42.128;24.750;2023-08-17T07:35:23;99623.16;;;30.11;40.43
32875;BME280;40468;42.128;24.750;2023-08-17T07:36:55;99630.25;;;30.26;40.46
32875;BME280;40468;42.128;24.750;2023-08-17T07:38:26;99627.63;;;30.39;40.22
32875;BME280;40468;42.128;24.750;2023-08-17T07:39:57;99627.03;;;30.50;40.02
32875;BME280;40468;42.128;24.750;2023-08-17T07:41:28;99633.06;;;30.66;39.78
32875;BME280;40468;42.128;24.750;2023-08-17T07:42:59;99629.56;;;30.78;39.76
32875;BME280;40468;42.128;24.750;2023-08-17T07:44:32;99631.47;;;30.91;39.28
32875;BME280;40468;42.128;24.750;2023-08-17T07:46:05;99629.59;;;31.05;38.65
32875;BME280;40468;42.128;24.750;2023-08-17T07:47:36;99634.97;;;31.12;37.92
32875;BME280;40468;42.128;24.750;2023-08-17T07:49:07;99628.78;;;31.11;37.65
32875;BME280;40468;42.128;24.750;2023-08-17T07:50:38;99632.91;;;31.14;37.79
32875;BME280;40468;42.128;24.750;2023-08-17T07:52:09;99631.66;;;31.23;38.25
32875;BME280;40468;42.128;24.750;2023-08-17T07:53:41;99624.44;;;31.37;38.10
32875;BME280;40468;42.128;24.750;2023-08-17T07:55:11;99625.88;;;31.53;38.01
32875;BME280;40468;42.128;24.750;2023-08-17T07:56:43;99614.66;;;31.69;37.84
32875;BME280;40468;42.128;24.750;2023-08-17T07:58:14;99622.69;;;31.82;37.05